Terminal Aerodrome Forecast
Issued by NWS

Home | Current Version | Previous Version | Text Only | Print | Product List | Glossary Off
Versions: 1 2 3 4 5 6 7 8 9 10 11 12 13 14 15

000
FTUS43 KMPX 262238 AAA
TAFRNH
TAF AMD
KRNH 262238Z 2623/2718 24004KT P6SM SCT045
      TEMPO 2623/2624 5SM -TSRA BKN050CB
     FM270100 26003KT P6SM SKC
     FM271400 26005KT P6SM BKN150=

USA.gov is the U.S. government's official web portal to all federal, state and local government web resources and services.